createdAt,value
2018-09-04T00:01:47.630Z,148822.16
2018-09-04T00:04:17.791Z,148828.39
2018-09-04T00:06:48.017Z,148814.64
2018-09-04T00:09:18.135Z,148812.16
2018-09-04T00:11:49.124Z,148820.92
2018-09-04T00:14:19.224Z,148824.66
2018-09-04T00:16:49.445Z,148829.63
2018-09-04T00:19:19.530Z,148822.16
2018-09-04T00:21:50.896Z,148675.00
2018-09-04T00:24:21.088Z,148819.67
2018-09-04T00:26:52.083Z,148817.13
2018-09-04T00:29:22.994Z,148809.66
2018-09-04T00:31:54.189Z,148814.64
2018-09-04T00:34:24.366Z,148817.13
2018-09-04T00:36:54.316Z,148797.22
2018-09-04T00:39:24.277Z,148798.45
2018-09-04T00:41:54.065Z,148777.28
2018-09-04T00:44:24.116Z,148779.78
2018-09-04T00:46:54.057Z,148787.25
2018-09-04T00:49:23.811Z,148773.55
2018-09-04T00:51:53.656Z,148758.56
2018-09-04T00:54:23.491Z,148769.77
2018-09-04T00:56:53.485Z,148792.23
2018-09-04T00:59:23.458Z,148783.52
2018-09-04T01:01:53.513Z,148786.00
2018-09-04T01:04:23.408Z,148787.25
2018-09-04T01:06:53.408Z,148799.70
2018-09-04T01:09:24.076Z,148835.86
2018-09-04T01:11:53.981Z,148840.84
2018-09-04T01:14:23.880Z,148848.31
2018-09-04T01:16:54.036Z,148823.41
2018-09-04T01:19:24.176Z,148784.75
2018-09-04T01:21:54.000Z,148781.03
2018-09-04T01:24:23.832Z,148802.19
2018-09-04T01:26:53.731Z,148809.66
2018-09-04T01:29:23.635Z,148819.67
2018-09-04T01:31:53.535Z,148822.16
2018-09-04T01:34:23.447Z,148822.16
2018-09-04T01:36:53.854Z,148798.45
2018-09-04T01:39:23.641Z,148761.05
2018-09-04T01:41:53.731Z,148769.77
2018-09-04T01:44:23.698Z,148782.27
2018-09-04T01:46:53.665Z,148805.92
2018-09-04T01:49:23.790Z,148798.45
2018-09-04T01:51:53.666Z,148766.03
2018-09-04T01:54:23.963Z,148759.81
2018-09-04T01:56:54.040Z,148762.30
2018-09-04T01:59:23.965Z,148789.73
2018-09-04T02:01:53.936Z,148764.78
2018-09-04T02:04:23.819Z,148774.80
2018-09-04T02:06:53.744Z,148774.80
2018-09-04T02:09:25.512Z,148753.58
2018-09-04T02:11:56.400Z,148744.88
2018-09-04T02:14:26.369Z,148717.42
2018-09-04T02:16:56.128Z,148708.66
2018-09-04T02:19:26.962Z,148723.66
2018-09-04T02:21:56.889Z,148744.88
2018-09-04T02:24:26.729Z,148764.78
2018-09-04T02:26:56.722Z,148747.36
2018-09-04T02:29:26.556Z,148754.83
2018-09-04T02:31:56.510Z,148752.34
2018-09-04T02:34:26.321Z,148752.34
2018-09-04T02:36:56.347Z,148737.39
2018-09-04T02:39:26.168Z,148756.06
2018-09-04T02:41:56.072Z,148757.31
2018-09-04T02:44:26.378Z,148746.11
2018-09-04T02:46:56.344Z,148753.58
2018-09-04T02:49:26.279Z,148737.39
2018-09-04T02:51:56.477Z,148767.28
2018-09-04T02:54:26.572Z,148746.11
2018-09-04T02:56:56.549Z,148737.39
2018-09-04T02:59:26.487Z,148731.17
2018-09-04T03:01:56.476Z,148743.63
2018-09-04T03:04:27.525Z,148734.91
2018-09-04T03:07:14.031Z,148738.64
2018-09-04T03:09:47.010Z,148718.67
2018-09-04T03:12:18.622Z,148709.91
2018-09-04T03:14:48.617Z,148692.48
2018-09-04T03:17:18.506Z,148683.77
2018-09-04T03:19:48.699Z,148682.53
2018-09-04T03:22:18.737Z,148660.06
2018-09-04T03:24:48.990Z,148672.52
2018-09-04T03:27:19.079Z,148663.80
2018-09-04T03:29:49.345Z,148680.03
2018-09-04T03:32:19.665Z,148680.03
2018-09-04T03:34:49.666Z,148706.17
2018-09-04T03:37:19.870Z,148692.48
2018-09-04T03:39:50.189Z,148706.17
2018-09-04T03:42:20.611Z,148688.75
2018-09-04T03:44:51.679Z,148697.47
2018-09-04T03:47:22.839Z,148666.28
2018-09-04T03:49:53.255Z,148658.83
2018-09-04T03:52:23.509Z,148680.03
2018-09-04T03:54:53.494Z,148733.66
2018-09-04T03:57:23.708Z,148761.05
2018-09-04T03:59:53.919Z,148774.80
2018-09-04T04:02:23.955Z,148835.86
2018-09-04T04:04:54.081Z,148908.16
2018-09-04T04:07:24.324Z,148993.00
2018-09-04T04:09:54.504Z,149034.17
2018-09-04T04:12:24.603Z,149069.12
2018-09-04T04:14:54.653Z,149074.09
2018-09-04T04:17:24.907Z,149074.09
2018-09-04T04:19:54.998Z,149036.67
2018-09-04T04:22:25.154Z,149011.75
2018-09-04T04:24:55.146Z,149042.89
2018-09-04T04:27:25.228Z,149104.06
2018-09-04T04:29:55.417Z,149165.23
2018-09-04T04:32:27.132Z,149162.73
2018-09-04T04:34:57.411Z,149200.19
2018-09-04T04:37:28.336Z,149231.34
2018-09-04T04:39:58.716Z,149265.06
2018-09-04T04:42:28.776Z,149371.20
2018-09-04T04:44:59.262Z,149548.59
2018-09-04T04:47:34.332Z,149809.78
2018-09-04T04:50:04.433Z,149943.61
2018-09-04T04:52:34.473Z,149949.86
2018-09-04T04:55:04.771Z,149887.36
2018-09-04T04:57:34.988Z,149831.06
2018-09-04T05:00:05.400Z,149751.05
2018-09-04T05:02:35.516Z,149648.53
2018-09-04T05:05:05.809Z,149696.06
2018-09-04T05:07:36.325Z,149707.31
2018-09-04T05:10:06.607Z,149622.28
2018-09-04T05:12:36.931Z,149659.78
2018-09-04T05:15:07.450Z,149661.03
2018-09-04T05:17:37.656Z,149548.59
2018-09-04T05:20:09.851Z,149578.59
2018-09-04T05:22:40.049Z,149578.59
2018-09-04T05:25:10.010Z,149641.05
2018-09-04T05:27:40.315Z,149704.81
2018-09-04T05:30:11.005Z,149794.80
2018-09-04T05:32:45.649Z,149894.84
2018-09-04T05:35:17.424Z,150168.81
2018-09-04T05:37:49.755Z,150559.52
2018-09-04T05:40:19.945Z,151017.06
2018-09-04T05:42:54.409Z,151053.44
2018-09-04T05:45:27.214Z,151369.67
2018-09-04T05:48:05.944Z,151595.69
2018-09-04T05:50:36.316Z,151947.50
2018-09-04T05:53:06.717Z,152156.28
2018-09-04T05:55:37.267Z,152287.05
2018-09-04T05:58:07.851Z,152201.53
2018-09-04T06:00:48.811Z,151859.55
2018-09-04T06:03:19.137Z,152035.53
2018-09-04T06:05:49.308Z,152122.27
2018-09-04T06:08:20.110Z,151846.94
2018-09-04T06:10:50.519Z,151753.94
2018-09-04T06:13:22.377Z,151741.39
2018-09-04T06:15:52.582Z,151497.70
2018-09-04T06:18:23.941Z,151416.11
2018-09-04T06:20:54.332Z,151686.14
2018-09-04T06:23:24.044Z,151824.36
2018-09-04T06:25:53.837Z,151681.13
2018-09-04T06:28:25.001Z,152124.78
2018-09-04T06:30:55.395Z,152526.14
2018-09-04T06:33:25.571Z,152654.56
2018-09-04T06:35:56.054Z,152728.84
2018-09-04T06:38:26.493Z,152753.98
2018-09-04T06:40:56.871Z,152629.38
2018-09-04T06:43:26.956Z,152678.50
2018-09-04T06:45:57.107Z,152660.84
2018-09-04T06:48:27.415Z,152561.38
2018-09-04T06:50:58.713Z,152697.34
2018-09-04T06:53:30.820Z,152513.53
2018-09-04T06:56:01.346Z,152337.41
2018-09-04T06:58:31.406Z,152526.14
2018-09-04T07:01:01.520Z,152596.63
2018-09-04T07:03:32.138Z,152287.05
2018-09-04T07:06:02.400Z,152084.55
2018-09-04T07:08:33.300Z,152317.25
2018-09-04T07:11:03.593Z,152048.09
2018-09-04T07:13:33.485Z,151811.81
2018-09-04T07:16:04.793Z,151635.91
2018-09-04T07:18:35.311Z,151550.48
2018-09-04T07:21:05.751Z,151368.42
2018-09-04T07:23:36.459Z,151131.22
2018-09-04T07:26:07.008Z,151057.20
2018-09-04T07:28:37.435Z,151009.56
2018-09-04T07:31:08.298Z,150951.84
2018-09-04T07:33:38.551Z,150842.75
2018-09-04T07:36:08.928Z,150717.44
2018-09-04T07:38:38.813Z,150617.13
2018-09-04T07:41:08.913Z,150526.98
2018-09-04T07:43:41.019Z,150563.27
2018-09-04T07:46:11.509Z,150648.50
2018-09-04T07:48:41.489Z,150516.92
2018-09-04T07:51:11.804Z,150496.91
2018-09-04T07:53:42.878Z,150491.91
2018-09-04T07:56:13.744Z,150511.92
2018-09-04T07:58:43.643Z,150513.17
2018-09-04T08:01:13.328Z,150473.05
2018-09-04T08:03:43.058Z,150503.17
2018-09-04T08:06:12.873Z,150459.28
2018-09-04T08:08:42.708Z,150464.30
2018-09-04T08:11:12.631Z,150465.55
2018-09-04T08:13:42.403Z,150421.72
2018-09-04T08:16:12.196Z,150422.97
2018-09-04T08:18:42.001Z,150430.47
2018-09-04T08:21:11.734Z,150424.22
2018-09-04T08:23:41.539Z,150415.47
2018-09-04T08:26:12.437Z,150483.09
2018-09-04T08:28:43.376Z,150506.92
2018-09-04T08:31:13.084Z,150483.09
2018-09-04T08:33:43.425Z,150515.69
2018-09-04T08:36:13.295Z,150558.27
2018-09-04T08:38:48.231Z,150597.09
2018-09-04T08:41:17.917Z,150598.34
2018-09-04T08:43:50.021Z,150622.17
2018-09-04T08:46:20.337Z,150627.17
2018-09-04T08:48:50.628Z,150644.70
2018-09-04T08:51:20.496Z,150672.33
2018-09-04T08:53:50.437Z,150766.30
2018-09-04T08:56:20.480Z,150807.66
2018-09-04T08:58:50.656Z,150860.34
2018-09-04T09:01:21.451Z,150905.41
2018-09-04T09:03:51.617Z,151063.47
2018-09-04T09:06:21.639Z,151069.73
2018-09-04T09:08:51.300Z,151163.84
2018-09-04T09:11:21.255Z,151131.22
2018-09-04T09:13:51.360Z,151139.98
2018-09-04T09:16:21.667Z,151205.25
2018-09-04T09:18:51.843Z,151250.45
2018-09-04T09:21:21.925Z,151175.11
2018-09-04T09:23:51.766Z,151275.52
2018-09-04T09:26:21.744Z,151266.75
2018-09-04T09:28:53.419Z,151262.98
2018-09-04T09:31:23.369Z,151251.70
2018-09-04T09:33:53.869Z,151198.97
2018-09-04T09:36:23.701Z,151097.39
2018-09-04T09:38:53.547Z,151067.22
2018-09-04T09:41:23.676Z,151025.84
2018-09-04T09:43:53.545Z,151002.03
2018-09-04T09:46:23.060Z,150975.69
2018-09-04T09:48:53.523Z,150931.75
2018-09-04T09:51:23.853Z,150935.52
2018-09-04T09:53:53.558Z,150917.98
2018-09-04T09:56:23.603Z,150920.48
2018-09-04T09:58:53.376Z,150886.63
2018-09-04T10:01:27.963Z,150904.16
2018-09-04T10:04:04.360Z,150872.86
2018-09-04T10:06:34.157Z,150907.97
2018-09-04T10:09:05.657Z,150887.89
2018-09-04T10:11:35.642Z,150866.59
2018-09-04T10:14:05.622Z,150820.22
2018-09-04T10:16:35.592Z,150806.41
2018-09-04T10:19:05.907Z,150738.72
2018-09-04T10:21:35.683Z,150744.97
2018-09-04T10:24:05.668Z,150707.38
2018-09-04T10:26:36.148Z,150659.77
2018-09-04T10:29:05.945Z,150667.28
2018-09-04T10:31:35.711Z,150654.75
2018-09-04T10:34:06.620Z,150623.42
2018-09-04T10:36:36.431Z,150605.86
2018-09-04T10:40:11.511Z,150597.09
2018-09-04T10:42:41.451Z,150628.42
2018-09-04T10:45:16.249Z,150663.52
2018-09-04T10:47:46.963Z,150597.09
2018-09-04T10:50:17.009Z,150619.63
2018-09-04T10:52:46.951Z,150674.83
2018-09-04T10:55:16.957Z,150630.94
2018-09-04T10:57:46.879Z,150619.63
2018-09-04T11:00:17.820Z,150632.19
2018-09-04T11:02:48.106Z,150592.09
2018-09-04T11:05:18.096Z,150639.69
2018-09-04T11:07:47.941Z,150629.69
2018-09-04T11:10:17.867Z,150659.77
2018-09-04T11:12:47.694Z,150649.75
2018-09-04T11:15:21.393Z,150648.50
2018-09-04T11:17:51.428Z,150674.83
2018-09-04T11:20:22.953Z,150707.38
2018-09-04T11:22:52.794Z,150682.34
2018-09-04T11:25:23.720Z,150693.59
2018-09-04T11:27:53.695Z,150702.36
2018-09-04T11:30:24.476Z,150676.08
2018-09-04T11:32:55.209Z,150677.34
2018-09-04T11:35:27.480Z,150672.33
2018-09-04T11:37:57.309Z,150669.83
2018-09-04T11:40:29.821Z,150674.83
2018-09-04T11:43:00.007Z,150692.34
2018-09-04T11:45:30.097Z,150723.69
2018-09-04T11:48:00.449Z,150692.34
2018-09-04T11:50:30.819Z,150683.59
2018-09-04T11:53:00.687Z,150696.11
2018-09-04T12:16:01.146Z,150704.86
2018-09-04T12:18:31.818Z,150684.84
2018-09-04T12:21:06.148Z,150693.59
2018-09-04T12:23:36.751Z,150732.45
2018-09-04T12:26:07.822Z,150712.38
2018-09-04T12:28:38.506Z,150722.44
2018-09-04T12:31:09.323Z,150732.45
2018-09-04T12:33:39.446Z,150753.73
2018-09-04T12:36:09.882Z,150718.69
2018-09-04T12:38:42.681Z,150722.44
2018-09-04T12:41:15.016Z,150780.06
2018-09-04T12:43:46.520Z,150797.64
2018-09-04T12:46:17.052Z,150762.50
2018-09-04T12:48:51.930Z,150780.06
2018-09-04T12:51:21.882Z,150722.44
2018-09-04T12:53:52.219Z,150676.08
2018-09-04T12:56:22.060Z,150699.86
2018-09-04T12:58:52.000Z,150724.94
2018-09-04T13:01:21.996Z,150743.72
2018-09-04T13:03:51.801Z,150733.70
2018-09-04T13:06:21.880Z,150686.09
2018-09-04T13:08:52.645Z,150726.19
2018-09-04T13:11:22.553Z,150753.73
2018-09-04T13:13:52.665Z,150767.55
2018-09-04T13:16:22.294Z,150763.80
2018-09-04T13:18:52.273Z,150742.47
2018-09-04T13:21:23.752Z,150749.97
2018-09-04T13:23:53.649Z,150773.81
2018-09-04T13:26:23.413Z,150723.69
2018-09-04T13:28:54.299Z,150708.63
2018-09-04T13:31:24.133Z,150664.77
2018-09-04T13:33:54.830Z,150560.77
2018-09-04T13:36:24.719Z,150538.25
2018-09-04T13:38:54.584Z,150605.86
2018-09-04T13:41:24.776Z,150633.44
2018-09-04T13:43:56.022Z,150654.75
2018-09-04T13:46:26.939Z,150671.08
2018-09-04T13:48:57.668Z,150693.59
2018-09-04T13:51:27.542Z,150669.83
2018-09-04T13:53:58.123Z,150627.17
2018-09-04T13:56:28.043Z,150653.50
2018-09-04T13:58:57.973Z,150619.63
2018-09-04T14:01:29.067Z,150619.63
2018-09-04T14:03:58.918Z,150600.84
2018-09-04T14:06:28.863Z,150557.02
2018-09-04T14:08:58.831Z,150526.98
2018-09-04T14:11:28.662Z,150529.48
2018-09-04T14:14:00.403Z,150558.27
2018-09-04T14:16:43.149Z,150574.58
2018-09-04T14:19:01.370Z,150587.09
2018-09-04T14:21:31.315Z,150607.11
2018-09-04T14:24:01.311Z,150617.13
2018-09-04T14:26:31.499Z,150597.09
2018-09-04T14:29:08.261Z,150614.62
2018-09-04T14:31:32.271Z,150538.25
2018-09-04T14:34:02.260Z,150511.92
2018-09-04T14:36:32.308Z,150529.48
2018-09-04T14:39:02.143Z,150538.25
2018-09-04T14:41:33.126Z,150535.75
2018-09-04T14:44:06.309Z,150540.75
2018-09-04T14:46:37.589Z,150543.25
2018-09-04T14:49:08.903Z,150499.41
2018-09-04T14:51:39.019Z,150451.78
2018-09-04T14:54:08.919Z,150504.42
2018-09-04T14:56:41.315Z,150476.80
2018-09-04T14:59:11.234Z,150484.36
2018-09-04T15:01:44.364Z,150485.61
2018-09-04T15:04:14.622Z,150486.86
2018-09-04T15:06:44.670Z,150495.66
2018-09-04T15:09:14.509Z,150431.78
2018-09-04T15:11:44.740Z,150357.89
2018-09-04T15:14:14.488Z,150381.66
2018-09-04T15:16:44.284Z,150367.89
2018-09-04T15:19:14.110Z,150361.64
2018-09-04T15:21:44.013Z,150346.64
2018-09-04T15:24:13.907Z,150352.89
2018-09-04T15:26:43.721Z,150347.89
2018-09-04T15:29:13.588Z,150341.63
2018-09-04T15:31:43.448Z,150320.28
2018-09-04T15:34:13.884Z,150309.03
2018-09-04T15:36:43.818Z,150305.28
2018-09-04T15:39:13.687Z,150287.72
2018-09-04T15:41:43.639Z,150289.02
2018-09-04T15:44:13.711Z,150277.72
2018-09-04T15:46:44.118Z,150263.97
2018-09-04T15:49:19.691Z,150228.91
2018-09-04T15:51:49.627Z,150208.91
2018-09-04T15:54:24.977Z,150165.06
2018-09-04T15:56:54.916Z,150161.31
2018-09-04T15:59:25.873Z,150131.28
2018-09-04T16:01:55.872Z,150110.03
2018-09-04T16:04:26.460Z,150108.78
2018-09-04T16:06:56.361Z,150072.50
2018-09-04T16:09:26.549Z,150071.25
2018-09-04T16:11:56.621Z,150061.25
2018-09-04T16:14:26.485Z,150002.38
2018-09-04T16:16:56.276Z,150014.97
2018-09-04T16:19:27.209Z,150012.47
2018-09-04T16:21:57.099Z,149988.64
2018-09-04T16:24:26.923Z,149983.63
2018-09-04T16:26:56.685Z,149952.36
2018-09-04T16:29:26.780Z,149932.37
2018-09-04T16:31:57.743Z,149933.62
2018-09-04T16:34:29.640Z,149924.87
2018-09-04T16:36:59.721Z,149902.34
2018-09-04T16:39:29.843Z,149889.84
2018-09-04T16:41:59.853Z,149886.11
2018-09-04T16:44:31.055Z,149878.61
2018-09-04T16:47:01.394Z,149856.09
2018-09-04T16:49:31.305Z,149816.08
2018-09-04T16:52:02.570Z,149842.30
2018-09-04T16:54:32.974Z,149824.81
2018-09-04T16:57:02.858Z,149807.28
2018-09-04T16:59:33.899Z,149759.78
2018-09-04T17:02:04.154Z,149757.28
2018-09-04T17:04:33.845Z,149741.06
2018-09-04T17:07:07.673Z,149708.55
2018-09-04T17:09:38.925Z,149718.53
2018-09-04T17:12:09.789Z,149708.55
2018-09-04T17:14:39.872Z,149701.06
2018-09-04T17:17:10.883Z,149688.58
2018-09-04T17:19:41.953Z,149669.81
2018-09-04T17:22:12.599Z,149653.53
2018-09-04T17:24:42.356Z,149634.81
2018-09-04T17:27:12.404Z,149627.31
2018-09-04T17:29:42.204Z,149623.53
2018-09-04T17:32:14.496Z,149614.80
2018-09-04T17:34:46.888Z,149617.28
2018-09-04T17:37:20.660Z,149612.30
2018-09-04T17:39:52.264Z,149587.34
2018-09-04T17:42:23.636Z,149557.34
2018-09-04T17:44:58.442Z,149552.34
2018-09-04T17:47:32.160Z,149562.33
2018-09-04T17:52:52.551Z,149452.39
2018-09-04T17:55:27.411Z,149414.91
2018-09-04T17:58:02.194Z,149483.63
2018-09-04T18:00:33.435Z,149501.14
2018-09-04T18:03:06.082Z,149502.39
2018-09-04T18:05:42.730Z,149491.11
2018-09-04T18:08:18.065Z,149473.59
2018-09-04T18:10:55.512Z,149459.88
2018-09-04T18:13:32.414Z,149422.41
2018-09-04T18:16:05.019Z,149411.17
2018-09-04T18:18:35.284Z,149421.16
2018-09-04T18:21:05.529Z,149406.19
2018-09-04T18:23:35.847Z,149417.41
2018-09-04T18:26:08.953Z,149392.47
2018-09-04T18:28:40.444Z,149373.70
2018-09-04T18:31:11.590Z,149391.22
2018-09-04T18:33:42.002Z,149377.44
2018-09-04T18:36:13.270Z,149386.17
2018-09-04T18:38:43.594Z,149367.47
2018-09-04T18:41:13.718Z,149363.72
2018-09-04T18:43:43.746Z,149326.27
2018-09-04T18:46:14.442Z,149301.28
2018-09-04T18:48:45.146Z,149290.00
2018-09-04T18:51:15.080Z,149303.77
2018-09-04T18:53:45.494Z,149301.28
2018-09-04T18:56:16.383Z,149307.50
2018-09-04T18:58:46.456Z,149306.27
2018-09-04T19:01:16.576Z,149291.25
2018-09-04T19:03:48.307Z,149281.28
2018-09-04T19:06:18.275Z,149291.25
2018-09-04T19:08:51.038Z,149288.75
2018-09-04T19:11:23.061Z,149281.28
2018-09-04T19:13:54.856Z,149270.05
2018-09-04T19:16:27.138Z,149283.77
2018-09-04T19:19:15.065Z,149301.28
2018-09-04T19:21:45.663Z,149311.30
2018-09-04T19:24:18.133Z,149285.02
2018-09-04T19:27:06.931Z,149258.83
2018-09-04T19:29:37.701Z,149246.36
2018-09-04T19:32:13.437Z,149230.11
2018-09-04T19:34:43.535Z,149211.41
2018-09-04T19:37:15.092Z,149215.14
2018-09-04T19:39:46.028Z,149263.81
2018-09-04T19:42:15.789Z,149305.02
2018-09-04T19:44:45.800Z,149318.78
2018-09-04T19:47:15.810Z,149307.50
2018-09-04T19:49:45.781Z,149276.28
2018-09-04T19:52:15.655Z,149293.80
2018-09-04T19:54:45.940Z,149273.80
2018-09-04T19:57:15.784Z,149268.81
2018-09-04T19:59:45.626Z,149268.81
2018-09-04T20:02:15.809Z,149286.25
2018-09-04T20:04:45.480Z,149278.78
2018-09-04T20:07:15.370Z,149276.28
2018-09-04T20:09:45.241Z,149276.28
2018-09-04T20:12:16.378Z,149303.77
2018-09-04T20:14:46.497Z,149306.27
2018-09-04T20:17:16.603Z,149307.50
2018-09-04T20:19:46.438Z,149312.55
2018-09-04T20:22:16.539Z,149321.28
2018-09-04T20:24:46.357Z,149310.05
2018-09-04T20:27:16.181Z,149318.78
2018-09-04T20:29:46.211Z,149347.52
2018-09-04T20:32:16.093Z,149355.00
2018-09-04T20:34:45.973Z,149386.17
2018-09-04T20:37:15.753Z,149383.69
2018-09-04T20:39:45.682Z,149381.19
2018-09-04T20:42:16.355Z,149402.44
2018-09-04T20:44:46.410Z,149421.16
2018-09-04T20:47:17.212Z,149431.13
2018-09-04T20:49:48.008Z,149416.16
2018-09-04T20:52:18.051Z,149427.39
2018-09-04T20:54:47.922Z,149446.16
2018-09-04T20:57:25.002Z,149467.36
2018-09-04T21:00:08.021Z,149468.59
2018-09-04T21:02:48.658Z,149466.11
2018-09-04T21:05:29.485Z,149477.34
2018-09-04T21:08:17.266Z,149481.08
2018-09-04T21:10:48.322Z,149503.64
2018-09-04T21:13:18.136Z,149499.89
2018-09-04T21:15:48.122Z,149518.61
2018-09-04T21:18:20.552Z,149536.13
2018-09-04T21:20:50.390Z,149541.11
2018-09-04T21:23:20.572Z,149554.84
2018-09-04T21:25:50.444Z,149553.59
2018-09-04T21:28:20.675Z,149541.11
2018-09-04T21:30:50.462Z,149546.11
2018-09-04T21:33:20.497Z,149554.84
2018-09-04T21:35:51.300Z,149543.61
2018-09-04T21:38:22.472Z,149501.14
2018-09-04T21:40:52.244Z,149518.61
2018-09-04T21:43:22.223Z,149534.88
2018-09-04T21:45:53.253Z,149522.34
2018-09-04T21:48:23.149Z,149489.86
2018-09-04T21:50:52.873Z,149518.61
2018-09-04T21:53:22.595Z,149526.09
2018-09-04T21:55:52.475Z,149543.61
2018-09-04T21:58:22.114Z,149544.86
2018-09-04T22:00:52.242Z,149547.34
2018-09-04T22:03:22.051Z,149524.84
2018-09-04T22:05:51.890Z,149501.14
2018-09-04T22:08:21.670Z,149442.41
2018-09-04T22:10:51.605Z,149453.63
2018-09-04T22:13:21.401Z,149452.39
2018-09-04T22:15:51.260Z,149449.89
2018-09-04T22:18:21.022Z,149441.16
2018-09-04T22:20:50.856Z,149438.66
2018-09-04T22:23:20.639Z,149433.63
2018-09-04T22:25:54.973Z,149436.17
2018-09-04T22:28:24.662Z,149453.63
2018-09-04T22:30:54.598Z,149456.12
2018-09-04T22:33:24.342Z,149426.14
2018-09-04T22:35:54.137Z,149423.66
2018-09-04T22:38:23.937Z,149386.17
2018-09-04T22:40:53.753Z,149331.25
2018-09-04T22:43:23.677Z,149338.73
2018-09-04T22:45:53.766Z,149348.75
2018-09-04T22:48:23.543Z,149367.47
2018-09-04T22:50:58.208Z,149295.03
2018-09-04T22:53:28.058Z,149438.66
2018-09-04T22:55:58.153Z,149459.88
